Accueil
METAR-TAF:

METAR-TAF

Aéroports :

Aéroport international de Memphis

Memphis, Tennessee, États-Unis

latitude: 35-03-40N, longitude: 089-59-06W, altitude: 101 m

Observation

Le bulletin a été fait il y a 1 heure et 4 minutes, à 10:54 UTC
Vent 6 kt de nord/nord-est
Température 15°C
Humidité 63%
Pression 1019 hPa
Visibilité: 16.1 km
Ciel clair

METAR: KMEM 011054Z 03006KT 10SM CLR 15/08 A3009 RMK AO2 SLP185 T01500078

Heure: 06:58 (11:58 UTC)

Prévision

Le bulletin a été fait il y a 27 minutes, à 11:31 UTC
Prévision valable du 01 à 12 UTC au 02 à 18 UTC
Vent 8 kt de nord/nord-est
Visibilité: 10 km
Ciel clair
A partir de 01 à 1700 UTC
Vent 8 kt de nord/nord-ouest
Visibilité: 10 km
Ciel clair
A partir de 02 à 0600 UTC
Vent 5 kt de nord
Visibilité: 10 km
Ciel clair

TAF: KMEM 011131Z 0112/0218 03008KT P6SM SKC FM011700 33008KT P6SM SKC FM020600 01005KT P6SM SKC

Observations et prévisions météorologiques de plus de 4000 aéroports (messages METAR et TAF).

Les stations disponibles sont représentées par des disques jaunes et rouges sur la carte.

Passer la souris dessus pour voir le nom de la station.

Cliquer dessus pour voir les observations et prévisions météorologiques.

Pour changer de carte: cliquez sur les boutons verts avec une croix noire pour zoomer, sur le bouton vert avec un tiret pour effectuer un zoom arrière, ou sur les flèches vertes pour les cartes adjacentes.


METAR-TAF: